createdAt,value
2018-03-08T00:02:18.049Z,0.80
2018-03-08T00:06:22.766Z,0.80
2018-03-08T00:10:26.297Z,0.80
2018-03-08T00:14:35.108Z,0.80
2018-03-08T00:18:38.915Z,0.80
2018-03-08T00:22:44.810Z,0.70
2018-03-08T00:27:14.066Z,0.80
2018-03-08T00:35:29.204Z,0.80
2018-03-08T00:39:37.999Z,0.70
2018-03-08T00:43:44.683Z,0.70
2018-03-08T00:47:48.318Z,0.70
2018-03-08T00:51:53.433Z,0.80
2018-03-08T00:55:57.067Z,0.80
2018-03-08T01:00:00.522Z,0.80
2018-03-08T01:04:04.581Z,0.70
2018-03-08T01:08:11.069Z,0.80
2018-03-08T01:12:15.771Z,0.70
2018-03-08T01:20:33.601Z,0.70
2018-03-08T01:24:40.205Z,0.70
2018-03-08T01:28:44.545Z,0.70
2018-03-08T01:32:48.117Z,0.80
2018-03-08T01:41:08.562Z,0.70
2018-03-08T01:45:20.402Z,0.80
2018-03-08T01:49:27.312Z,0.80
2018-03-08T01:57:48.434Z,0.70
2018-03-08T02:01:56.150Z,0.70
2018-03-08T02:06:05.083Z,0.70
2018-03-08T02:10:10.521Z,0.70
2018-03-08T02:14:16.333Z,0.70
2018-03-08T02:18:21.371Z,0.70
2018-03-08T02:22:29.673Z,0.70
2018-03-08T02:26:33.307Z,0.70
2018-03-08T02:30:36.765Z,0.70
2018-03-08T02:34:41.135Z,0.70
2018-03-08T02:38:46.348Z,0.70
2018-03-08T02:42:51.787Z,0.70
2018-03-08T02:47:03.900Z,0.80
2018-03-08T02:51:10.335Z,0.80
2018-03-08T02:55:17.608Z,0.70
2018-03-08T02:59:26.293Z,0.70
2018-03-08T03:03:37.746Z,0.80
2018-03-08T03:07:43.904Z,0.70
2018-03-08T03:11:49.287Z,0.70
2018-03-08T03:15:58.727Z,0.70
2018-03-08T03:20:03.635Z,0.70
2018-03-08T03:24:07.820Z,0.70
2018-03-08T03:28:13.162Z,0.70
2018-03-08T03:32:18.176Z,0.70
2018-03-08T03:36:27.931Z,0.70
2018-03-08T03:40:42.918Z,0.70
2018-03-08T03:44:48.865Z,0.70
2018-03-08T03:48:57.012Z,0.70
2018-03-08T03:53:03.907Z,0.70
2018-03-08T03:57:07.446Z,0.70
2018-03-08T04:01:11.510Z,0.70
2018-03-08T04:05:15.762Z,0.70
2018-03-08T04:17:52.554Z,0.70
2018-03-08T04:22:00.325Z,0.70
2018-03-08T04:26:07.574Z,0.70
2018-03-08T04:30:11.177Z,0.70
2018-03-08T04:34:15.661Z,0.70
2018-03-08T04:42:57.199Z,0.70
2018-03-08T04:47:00.515Z,0.70
2018-03-08T04:51:03.834Z,0.70
2018-03-08T04:55:07.149Z,0.70
2018-03-08T04:59:11.222Z,0.70
2018-03-08T05:03:14.559Z,0.70
2018-03-08T05:07:17.875Z,0.70
2018-03-08T05:11:21.947Z,0.70
2018-03-08T05:15:25.272Z,0.70
2018-03-08T05:19:28.595Z,0.70
2018-03-08T05:23:31.930Z,0.70
2018-03-08T05:27:35.230Z,0.60
2018-03-08T05:31:38.550Z,0.70
2018-03-08T05:35:41.858Z,0.60
2018-03-08T05:39:45.159Z,0.60
2018-03-08T05:43:48.478Z,0.60
2018-03-08T05:47:51.791Z,0.60
2018-03-08T05:51:55.129Z,0.60
2018-03-08T05:55:59.201Z,0.60
2018-03-08T06:00:02.581Z,0.60
2018-03-08T06:04:05.900Z,0.60
2018-03-08T06:08:09.202Z,0.60
2018-03-08T06:12:12.538Z,0.70
2018-03-08T06:16:15.838Z,0.70
2018-03-08T06:20:19.172Z,0.70
2018-03-08T06:24:23.239Z,0.70
2018-03-08T06:28:26.567Z,0.70
2018-03-08T06:32:29.893Z,0.70
2018-03-08T06:36:33.974Z,0.70
2018-03-08T06:40:37.298Z,0.70
2018-03-08T06:44:40.598Z,0.70
2018-03-08T06:48:43.921Z,0.70
2018-03-08T06:52:47.996Z,0.70
2018-03-08T06:56:51.310Z,0.70
2018-03-08T07:00:54.627Z,0.70
2018-03-08T07:04:57.950Z,0.70
2018-03-08T07:09:02.046Z,0.80
2018-03-08T07:13:05.354Z,0.80
2018-03-08T07:17:08.678Z,0.70
2018-03-08T07:21:12.741Z,0.80
2018-03-08T07:25:16.076Z,0.80
2018-03-08T07:29:19.379Z,0.80
2018-03-08T07:33:22.704Z,0.80
2018-03-08T07:37:26.782Z,0.80
2018-03-08T07:41:30.107Z,0.90
2018-03-08T07:45:33.411Z,0.90
2018-03-08T07:49:36.726Z,0.90
2018-03-08T07:53:40.055Z,0.90
2018-03-08T07:57:43.363Z,0.90
2018-03-08T08:01:46.678Z,1.00
2018-03-08T08:06:07.451Z,0.90
2018-03-08T08:10:11.543Z,0.90
2018-03-08T08:14:14.870Z,0.90
2018-03-08T08:18:18.960Z,1.00
2018-03-08T08:22:22.277Z,0.90
2018-03-08T08:26:25.603Z,1.00
2018-03-08T08:30:29.672Z,1.00
2018-03-08T08:34:32.988Z,1.00
2018-03-08T08:38:36.310Z,1.00
2018-03-08T08:42:39.616Z,1.00
2018-03-08T08:46:42.996Z,1.00
2018-03-08T08:50:47.035Z,1.10
2018-03-08T08:54:51.555Z,1.10
2018-03-08T08:58:55.012Z,1.10
2018-03-08T09:02:58.346Z,1.10
2018-03-08T09:07:01.642Z,1.20
2018-03-08T09:11:04.964Z,1.30
2018-03-08T09:15:08.262Z,1.30
2018-03-08T09:19:11.587Z,1.30
2018-03-08T09:23:14.904Z,1.30
2018-03-08T09:27:18.976Z,1.60
2018-03-08T09:31:22.298Z,1.50
2018-03-08T09:35:27.763Z,1.70
2018-03-08T09:39:31.075Z,1.70
2018-03-08T09:43:34.407Z,1.80
2018-03-08T09:47:37.710Z,1.90
2018-03-08T09:51:41.035Z,2.00
2018-03-08T09:55:44.339Z,2.00
2018-03-08T09:59:47.656Z,2.00
2018-03-08T10:03:50.969Z,2.10
2018-03-08T10:07:54.283Z,2.30
2018-03-08T10:11:57.579Z,2.40
2018-03-08T10:16:00.911Z,2.50
2018-03-08T10:20:04.978Z,2.90
2018-03-08T10:24:08.295Z,2.90
2018-03-08T10:28:11.618Z,3.00
2018-03-08T10:32:15.019Z,3.00
2018-03-08T10:36:18.352Z,3.20
2018-03-08T10:44:25.742Z,3.30
2018-03-08T10:48:29.050Z,3.30
2018-03-08T10:52:32.358Z,3.30
2018-03-08T10:56:35.666Z,3.20
2018-03-08T11:00:44.368Z,3.20
2018-03-08T11:04:53.123Z,3.20
2018-03-08T11:08:56.430Z,3.20
2018-03-08T11:13:00.507Z,3.10
2018-03-08T11:17:03.834Z,3.10
2018-03-08T11:21:07.129Z,3.10
2018-03-08T11:25:10.442Z,3.30
2018-03-08T11:29:13.755Z,3.20
2018-03-08T11:33:17.078Z,3.30
2018-03-08T11:37:21.139Z,3.30
2018-03-08T11:41:24.447Z,3.30
2018-03-08T11:45:27.758Z,3.40
2018-03-08T11:49:31.051Z,3.50
2018-03-08T11:53:34.358Z,3.40
2018-03-08T11:57:37.670Z,3.30
2018-03-08T12:01:40.978Z,3.30
2018-03-08T12:05:44.294Z,3.40
2018-03-08T12:09:47.619Z,3.40
2018-03-08T12:13:51.676Z,3.40
2018-03-08T12:17:55.044Z,3.40
2018-03-08T12:21:58.307Z,3.40
2018-03-08T12:26:01.624Z,3.40
2018-03-08T12:30:04.933Z,3.50
2018-03-08T12:34:08.251Z,3.60
2018-03-08T12:38:12.334Z,3.50
2018-03-08T12:42:15.642Z,3.50
2018-03-08T12:46:18.971Z,3.60
2018-03-08T12:50:23.026Z,3.70
2018-03-08T12:54:26.335Z,3.70
2018-03-08T12:58:29.647Z,3.80
2018-03-08T13:02:32.956Z,3.90
2018-03-08T13:06:36.271Z,4.10
2018-03-08T13:10:39.588Z,4.30
2018-03-08T13:14:42.909Z,4.40
2018-03-08T13:18:46.987Z,4.70
2018-03-08T13:22:50.295Z,4.60
2018-03-08T13:26:53.618Z,4.80
2018-03-08T13:30:56.910Z,4.90
2018-03-08T13:35:00.219Z,4.90
2018-03-08T13:39:03.531Z,5.00
2018-03-08T13:43:06.846Z,4.90
2018-03-08T13:47:10.926Z,5.00
2018-03-08T13:51:14.225Z,5.00
2018-03-08T13:55:17.529Z,5.10
2018-03-08T13:59:20.838Z,5.10
2018-03-08T14:03:24.156Z,5.10
2018-03-08T14:07:27.485Z,5.10
2018-03-08T14:11:31.546Z,5.10
2018-03-08T14:15:34.865Z,5.10
2018-03-08T14:19:38.179Z,5.10
2018-03-08T14:23:41.474Z,5.10
2018-03-08T14:27:44.799Z,5.00
2018-03-08T14:31:48.119Z,5.10
2018-03-08T14:35:51.410Z,5.20
2018-03-08T14:39:55.483Z,5.20
2018-03-08T14:43:58.794Z,5.20
2018-03-08T14:48:02.107Z,5.20
2018-03-08T14:52:05.404Z,5.20
2018-03-08T14:56:08.714Z,5.20
2018-03-08T15:00:12.081Z,5.10
2018-03-08T15:04:15.330Z,5.10
2018-03-08T15:08:18.647Z,5.00
2018-03-08T15:12:22.722Z,4.90
2018-03-08T15:16:26.019Z,4.90
2018-03-08T15:20:29.327Z,4.90
2018-03-08T15:24:32.639Z,4.90
2018-03-08T15:28:35.946Z,4.90
2018-03-08T15:32:39.239Z,4.90
2018-03-08T15:36:42.551Z,5.00
2018-03-08T15:40:45.864Z,4.90
2018-03-08T15:44:49.195Z,4.90
2018-03-08T15:48:53.246Z,4.80
2018-03-08T15:52:56.898Z,4.80
2018-03-08T15:57:00.193Z,4.80
2018-03-08T16:01:03.520Z,4.70
2018-03-08T16:05:06.831Z,4.70
2018-03-08T16:09:10.923Z,4.50
2018-03-08T16:13:14.243Z,4.50
2018-03-08T16:17:17.560Z,4.40
2018-03-08T16:21:21.642Z,4.30
2018-03-08T16:25:24.995Z,4.30
2018-03-08T16:29:28.330Z,4.20
2018-03-08T16:33:31.653Z,4.10
2018-03-08T16:37:34.979Z,4.10
2018-03-08T16:41:38.280Z,4.10
2018-03-08T16:45:41.594Z,4.00
2018-03-08T16:49:45.667Z,4.00
2018-03-08T16:53:48.958Z,4.00
2018-03-08T16:57:52.286Z,4.00
2018-03-08T17:01:55.583Z,4.10
2018-03-08T17:05:58.907Z,4.10
2018-03-08T17:10:02.203Z,4.10
2018-03-08T17:14:05.524Z,4.00
2018-03-08T17:18:08.838Z,4.00
2018-03-08T17:22:12.156Z,3.90
2018-03-08T17:26:15.463Z,3.80
2018-03-08T17:30:18.796Z,3.80
2018-03-08T17:34:22.152Z,3.70
2018-03-08T17:38:25.423Z,3.60
2018-03-08T17:42:28.761Z,3.60
2018-03-08T17:46:32.843Z,3.70
2018-03-08T17:50:36.154Z,3.70
2018-03-08T17:54:39.462Z,3.70
2018-03-08T17:58:42.783Z,3.60
2018-03-08T18:02:46.871Z,3.60
2018-03-08T18:06:50.171Z,3.60
2018-03-08T18:10:53.498Z,3.50
2018-03-08T18:14:56.826Z,3.60
2018-03-08T18:19:00.136Z,3.60
2018-03-08T18:23:03.461Z,3.70
2018-03-08T18:27:06.798Z,3.80
2018-03-08T18:59:49.202Z,3.70
2018-03-08T19:03:52.515Z,3.30
2018-03-08T19:07:56.590Z,3.10
2018-03-08T19:11:59.895Z,3.10
2018-03-08T19:16:03.216Z,3.00
2018-03-08T19:20:06.515Z,2.90
2018-03-08T19:24:09.871Z,2.90
2018-03-08T19:28:13.212Z,2.80
2018-03-08T19:32:16.530Z,2.80
2018-03-08T19:36:19.847Z,2.80
2018-03-08T19:40:23.951Z,2.70
2018-03-08T19:44:27.283Z,2.70
2018-03-08T19:48:30.629Z,2.70
2018-03-08T19:52:33.942Z,2.70
2018-03-08T19:56:37.271Z,2.70
2018-03-08T20:00:40.619Z,2.60
2018-03-08T20:04:43.926Z,2.60
2018-03-08T20:08:47.255Z,2.50
2018-03-08T20:12:50.597Z,2.50
2018-03-08T20:16:54.692Z,2.50
2018-03-08T20:20:58.039Z,2.50
2018-03-08T20:25:01.364Z,2.40
2018-03-08T20:29:04.704Z,2.40
2018-03-08T20:33:08.017Z,2.30
2018-03-08T20:37:11.348Z,2.30
2018-03-08T20:41:14.659Z,2.30
2018-03-08T20:45:18.011Z,2.30
2018-03-08T20:49:21.323Z,2.30
2018-03-08T20:53:24.638Z,2.20
2018-03-08T20:57:27.948Z,2.20
2018-03-08T21:01:31.281Z,2.20
2018-03-08T21:05:34.583Z,2.20
2018-03-08T21:09:37.927Z,2.20
2018-03-08T21:13:41.259Z,2.10
2018-03-08T21:17:44.595Z,2.20
2018-03-08T21:21:47.928Z,2.10
2018-03-08T21:25:51.259Z,2.20
2018-03-08T21:29:54.554Z,2.20
2018-03-08T21:33:57.880Z,2.20
2018-03-08T21:38:01.212Z,2.20
2018-03-08T21:42:04.511Z,2.20
2018-03-08T21:46:07.839Z,2.20
2018-03-08T21:50:11.160Z,2.20
2018-03-08T21:54:14.500Z,2.20
2018-03-08T21:58:17.807Z,2.20
2018-03-08T22:02:21.138Z,2.20
2018-03-08T22:06:25.267Z,2.20
2018-03-08T22:10:28.581Z,2.20
2018-03-08T22:14:31.912Z,2.20
2018-03-08T22:18:35.237Z,2.20
2018-03-08T22:22:38.563Z,2.20
2018-03-08T22:26:41.876Z,2.20
2018-03-08T22:30:45.201Z,2.20
2018-03-08T22:34:48.520Z,2.20
2018-03-08T22:38:51.852Z,2.20
2018-03-08T22:42:55.180Z,2.30
2018-03-08T22:46:58.527Z,2.30
2018-03-08T22:51:01.842Z,2.30
2018-03-08T22:55:05.162Z,2.30
2018-03-08T22:59:08.515Z,2.30
2018-03-08T23:03:17.672Z,2.30
2018-03-08T23:07:21.092Z,2.30
2018-03-08T23:11:24.798Z,2.30
2018-03-08T23:19:48.746Z,2.30
2018-03-08T23:37:56.519Z,2.10
2018-03-08T23:41:59.967Z,2.00
2018-03-08T23:46:03.663Z,1.90
2018-03-08T23:50:07.064Z,1.80
2018-03-08T23:54:10.410Z,1.80
2018-03-08T23:58:13.793Z,1.80
